createdAt,value
2022-10-06T00:00:46.740Z,95.82
2022-10-06T00:01:46.768Z,95.72
2022-10-06T00:02:46.819Z,95.72
2022-10-06T00:03:46.705Z,95.72
2022-10-06T00:04:47.118Z,95.87
2022-10-06T00:05:46.691Z,95.87
2022-10-06T00:06:46.668Z,95.87
2022-10-06T00:07:46.651Z,95.87
2022-10-06T00:08:46.636Z,96.07
2022-10-06T00:09:47.047Z,96.33
2022-10-06T00:10:46.613Z,96.54
2022-10-06T00:11:46.601Z,96.64
2022-10-06T00:12:46.587Z,96.64
2022-10-06T00:13:46.583Z,96.74
2022-10-06T00:14:46.949Z,96.58
2022-10-06T00:15:46.614Z,96.48
2022-10-06T00:16:46.539Z,96.38
2022-10-06T00:17:46.541Z,96.48
2022-10-06T00:18:46.510Z,96.58
2022-10-06T00:19:46.819Z,96.48
2022-10-06T00:20:46.477Z,96.48
2022-10-06T00:21:46.471Z,96.38
2022-10-06T00:22:46.449Z,96.13
2022-10-06T00:23:46.439Z,95.87
2022-10-06T00:24:46.855Z,95.66
2022-10-06T00:25:46.426Z,95.62
2022-10-06T00:26:46.406Z,95.41
2022-10-06T00:27:46.385Z,95.31
2022-10-06T00:28:46.451Z,95.41
2022-10-06T00:29:46.667Z,95.41
2022-10-06T00:30:46.386Z,95.31
2022-10-06T00:31:46.336Z,95.31
2022-10-06T00:32:46.332Z,95.41
2022-10-06T00:33:46.305Z,95.41
2022-10-06T00:34:46.674Z,95.51
2022-10-06T00:35:46.285Z,95.37
2022-10-06T00:36:46.284Z,95.37
2022-10-06T00:37:46.274Z,95.47
2022-10-06T00:38:46.254Z,95.37
2022-10-06T00:39:46.654Z,95.26
2022-10-06T00:40:46.230Z,95.31
2022-10-06T00:41:46.218Z,95.21
2022-10-06T00:42:46.203Z,95.00
2022-10-06T00:43:46.179Z,95.00
2022-10-06T00:44:46.604Z,94.95
2022-10-06T00:45:46.156Z,94.95
2022-10-06T00:46:46.316Z,94.84
2022-10-06T00:47:46.131Z,94.95
2022-10-06T00:48:46.130Z,94.99
2022-10-06T00:49:46.460Z,95.09
2022-10-06T00:50:46.100Z,95.29
2022-10-06T00:51:46.082Z,95.40
2022-10-06T00:52:46.070Z,95.50
2022-10-06T00:53:46.056Z,95.70
2022-10-06T00:54:46.471Z,95.76
2022-10-06T00:55:46.019Z,95.76
2022-10-06T00:56:46.021Z,95.87
2022-10-06T00:57:46.018Z,95.87
2022-10-06T00:58:45.986Z,95.76
2022-10-06T00:59:45.988Z,95.87
2022-10-06T01:00:46.408Z,95.87
2022-10-06T01:01:46.015Z,95.97
2022-10-06T01:02:45.966Z,96.17
2022-10-06T01:03:45.920Z,96.28
2022-10-06T01:04:46.218Z,96.22
2022-10-06T01:05:45.899Z,96.12
2022-10-06T01:06:45.896Z,96.01
2022-10-06T01:07:45.887Z,96.12
2022-10-06T01:08:45.864Z,96.22
2022-10-06T01:09:46.264Z,96.32
2022-10-06T01:10:45.838Z,96.63
2022-10-06T01:11:45.816Z,96.53
2022-10-06T01:12:45.806Z,96.53
2022-10-06T01:13:45.800Z,96.42
2022-10-06T01:14:46.035Z,96.22
2022-10-06T01:15:45.846Z,96.16
2022-10-06T01:16:45.753Z,96.06
2022-10-06T01:17:45.744Z,96.06
2022-10-06T01:18:45.725Z,95.95
2022-10-06T01:19:46.066Z,95.95
2022-10-06T01:20:45.714Z,95.95
2022-10-06T01:21:45.686Z,95.95
2022-10-06T01:22:45.677Z,95.95
2022-10-06T01:23:45.680Z,95.95
2022-10-06T01:24:46.075Z,95.95
2022-10-06T01:25:45.625Z,96.00
2022-10-06T01:26:45.632Z,96.00
2022-10-06T01:27:52.609Z,96.00
2022-10-06T01:28:46.045Z,96.10
2022-10-06T01:29:52.574Z,96.10
2022-10-06T01:30:45.588Z,96.10
2022-10-06T01:31:53.576Z,96.31
2022-10-06T01:32:45.540Z,96.31
2022-10-06T01:33:52.861Z,96.41
2022-10-06T01:34:45.510Z,96.41
2022-10-06T01:35:45.501Z,96.51
2022-10-06T01:36:52.491Z,96.51
2022-10-06T01:37:45.471Z,96.51
2022-10-06T01:38:45.461Z,96.41
2022-10-06T01:39:45.752Z,96.41
2022-10-06T01:40:45.430Z,96.41
2022-10-06T01:41:45.418Z,96.31
2022-10-06T01:42:45.429Z,96.41
2022-10-06T01:43:52.409Z,96.31
2022-10-06T01:44:45.810Z,96.62
2022-10-06T01:45:45.367Z,96.82
2022-10-06T01:46:45.414Z,96.78
2022-10-06T01:47:45.351Z,96.82
2022-10-06T01:48:45.354Z,96.82
2022-10-06T01:49:45.627Z,96.88
2022-10-06T01:50:45.333Z,96.98
2022-10-06T01:51:45.302Z,97.08
2022-10-06T01:52:45.296Z,96.98
2022-10-06T01:53:45.285Z,96.98
2022-10-06T01:54:45.570Z,96.88
2022-10-06T01:55:45.248Z,96.88
2022-10-06T01:56:45.238Z,96.78
2022-10-06T01:57:45.224Z,96.72
2022-10-06T01:58:45.255Z,96.62
2022-10-06T01:59:45.676Z,96.41
2022-10-06T02:00:45.216Z,96.41
2022-10-06T02:01:45.249Z,96.41
2022-10-06T02:02:45.166Z,96.35
2022-10-06T02:03:45.145Z,96.45
2022-10-06T02:04:45.475Z,96.51
2022-10-06T02:05:45.134Z,96.62
2022-10-06T02:06:45.178Z,96.62
2022-10-06T02:07:45.109Z,96.62
2022-10-06T02:08:45.085Z,96.66
2022-10-06T02:09:45.337Z,96.66
2022-10-06T02:10:45.067Z,96.66
2022-10-06T02:11:45.045Z,96.66
2022-10-06T02:12:45.023Z,96.66
2022-10-06T02:13:45.022Z,96.66
2022-10-06T02:14:45.445Z,96.66
2022-10-06T02:15:45.026Z,96.66
2022-10-06T02:16:44.972Z,96.60
2022-10-06T02:17:44.965Z,96.60
2022-10-06T02:18:44.962Z,96.60
2022-10-06T02:19:45.304Z,96.50
2022-10-06T02:20:44.943Z,96.60
2022-10-06T02:21:45.358Z,96.81
2022-10-06T02:22:44.943Z,96.81
2022-10-06T02:23:44.883Z,96.91
2022-10-06T02:24:45.288Z,96.91
2022-10-06T02:25:44.864Z,96.91
2022-10-06T02:26:44.864Z,96.91
2022-10-06T02:27:44.842Z,96.91
2022-10-06T02:28:44.919Z,97.02
2022-10-06T02:29:45.233Z,97.02
2022-10-06T02:30:44.793Z,97.02
2022-10-06T02:31:44.780Z,97.02
2022-10-06T02:32:44.777Z,97.02
2022-10-06T02:33:44.753Z,97.12
2022-10-06T02:34:45.179Z,97.12
2022-10-06T02:35:44.722Z,97.12
2022-10-06T02:36:44.710Z,97.02
2022-10-06T02:37:44.709Z,97.02
2022-10-06T02:38:44.693Z,97.02
2022-10-06T02:39:45.028Z,97.02
2022-10-06T02:40:44.692Z,97.02
2022-10-06T02:41:44.657Z,97.02
2022-10-06T02:42:44.628Z,97.12
2022-10-06T02:43:44.627Z,97.02
2022-10-06T02:44:44.949Z,97.22
2022-10-06T02:45:44.598Z,97.22
2022-10-06T02:46:44.621Z,97.48
2022-10-06T02:47:44.599Z,97.54
2022-10-06T02:48:44.557Z,97.54
2022-10-06T02:49:44.968Z,97.54
2022-10-06T02:50:44.531Z,97.54
2022-10-06T02:51:44.542Z,97.54
2022-10-06T02:52:44.506Z,97.54
2022-10-06T02:53:44.498Z,97.44
2022-10-06T02:54:44.472Z,97.44
2022-10-06T02:55:44.890Z,97.44
2022-10-06T02:56:44.446Z,97.48
2022-10-06T02:57:44.435Z,97.38
2022-10-06T02:58:44.427Z,97.38
2022-10-06T02:59:44.431Z,97.48
2022-10-06T03:00:44.737Z,97.38
2022-10-06T03:01:44.451Z,97.38
2022-10-06T03:02:44.631Z,97.38
2022-10-06T03:03:44.372Z,97.38
2022-10-06T03:04:44.764Z,97.38
2022-10-06T03:05:44.343Z,97.38
2022-10-06T03:06:44.328Z,97.28
2022-10-06T03:07:44.321Z,97.42
2022-10-06T03:08:44.293Z,97.42
2022-10-06T03:09:44.634Z,97.42
2022-10-06T03:10:44.266Z,97.42
2022-10-06T03:11:44.278Z,97.42
2022-10-06T03:12:44.242Z,97.42
2022-10-06T03:13:44.243Z,97.32
2022-10-06T03:14:44.633Z,97.32
2022-10-06T03:15:44.268Z,97.22
2022-10-06T03:16:44.198Z,97.22
2022-10-06T03:17:44.184Z,97.27
2022-10-06T03:18:44.172Z,97.27
2022-10-06T03:19:44.561Z,97.27
2022-10-06T03:20:44.150Z,97.27
2022-10-06T03:21:44.130Z,97.27
2022-10-06T03:22:44.124Z,97.27
2022-10-06T03:23:44.091Z,97.37
2022-10-06T03:24:44.461Z,97.47
2022-10-06T03:25:44.087Z,97.47
2022-10-06T03:26:44.060Z,97.57
2022-10-06T03:27:44.059Z,97.57
2022-10-06T03:28:44.126Z,97.57
2022-10-06T03:29:44.430Z,97.57
2022-10-06T03:30:44.033Z,97.57
2022-10-06T03:31:44.085Z,97.63
2022-10-06T03:32:43.997Z,97.63
2022-10-06T03:33:43.991Z,97.63
2022-10-06T03:34:44.317Z,97.73
2022-10-06T03:35:44.145Z,97.73
2022-10-06T03:36:43.930Z,97.73
2022-10-06T03:37:44.253Z,97.83
2022-10-06T03:38:44.064Z,97.83
2022-10-06T03:39:44.236Z,97.69
2022-10-06T03:40:43.879Z,97.73
2022-10-06T03:41:43.894Z,97.73
2022-10-06T03:42:43.857Z,97.63
2022-10-06T03:43:43.845Z,97.63
2022-10-06T03:44:44.255Z,97.63
2022-10-06T03:45:43.828Z,97.63
2022-10-06T03:46:43.852Z,97.53
2022-10-06T03:47:43.795Z,97.42
2022-10-06T03:48:43.799Z,97.47
2022-10-06T03:49:44.182Z,97.47
2022-10-06T03:50:43.741Z,97.47
2022-10-06T03:51:43.726Z,97.37
2022-10-06T03:52:43.721Z,97.47
2022-10-06T03:53:51.312Z,97.37
2022-10-06T03:54:52.053Z,97.53
2022-10-06T03:55:43.693Z,97.63
2022-10-06T03:56:50.665Z,97.53
2022-10-06T03:57:43.648Z,97.53
2022-10-06T03:58:43.636Z,97.63
2022-10-06T03:59:43.920Z,97.53
2022-10-06T04:00:43.773Z,97.53
2022-10-06T04:01:43.699Z,97.42
2022-10-06T04:02:43.597Z,97.42
2022-10-06T04:03:43.574Z,97.32
2022-10-06T04:04:43.811Z,97.32
2022-10-06T04:05:43.553Z,97.32
2022-10-06T04:06:43.536Z,97.32
2022-10-06T04:07:43.525Z,97.22
2022-10-06T04:08:43.511Z,97.22
2022-10-06T04:09:43.733Z,97.22
2022-10-06T04:10:43.483Z,97.12
2022-10-06T04:11:43.479Z,97.12
2022-10-06T04:12:43.456Z,97.02
2022-10-06T04:13:43.484Z,97.02
2022-10-06T04:14:43.752Z,97.02
2022-10-06T04:15:43.425Z,97.02
2022-10-06T04:16:43.487Z,97.02
2022-10-06T04:17:43.399Z,97.02
2022-10-06T04:18:43.389Z,97.02
2022-10-06T04:19:43.561Z,97.12
2022-10-06T04:20:43.365Z,97.12
2022-10-06T04:21:43.345Z,97.12
2022-10-06T04:22:43.350Z,97.22
2022-10-06T04:23:43.341Z,97.17
2022-10-06T04:24:43.521Z,97.17
2022-10-06T04:25:43.289Z,97.17
2022-10-06T04:26:43.270Z,97.28
2022-10-06T04:27:43.278Z,97.28
2022-10-06T04:28:43.287Z,97.17
2022-10-06T04:29:43.441Z,97.13
2022-10-06T04:30:43.219Z,97.03
2022-10-06T04:31:43.287Z,97.03
2022-10-06T04:32:43.219Z,96.92
2022-10-06T04:33:43.189Z,96.92
2022-10-06T04:34:43.390Z,96.82
2022-10-06T04:35:43.173Z,96.82
2022-10-06T04:36:43.156Z,96.72
2022-10-06T04:37:43.137Z,96.72
2022-10-06T04:38:43.126Z,96.72
2022-10-06T04:39:43.426Z,96.72
2022-10-06T04:40:43.115Z,96.62
2022-10-06T04:41:43.114Z,96.62
2022-10-06T04:42:43.074Z,96.62
2022-10-06T04:43:43.056Z,96.62
2022-10-06T04:44:43.049Z,96.62
2022-10-06T04:45:43.341Z,96.62
2022-10-06T04:46:44.174Z,96.51
2022-10-06T04:47:43.035Z,96.51
2022-10-06T04:48:42.984Z,96.41
2022-10-06T04:49:43.029Z,96.51
2022-10-06T04:50:43.388Z,96.51
2022-10-06T04:51:43.024Z,96.51
2022-10-06T04:52:42.943Z,96.41
2022-10-06T04:53:42.923Z,96.51
2022-10-06T04:54:42.925Z,96.62
2022-10-06T04:55:43.177Z,96.62
2022-10-06T04:56:42.883Z,96.62
2022-10-06T04:57:42.882Z,96.62
2022-10-06T04:58:42.873Z,96.62
2022-10-06T04:59:42.874Z,96.51
2022-10-06T05:00:42.907Z,96.51
2022-10-06T05:01:42.831Z,96.41
2022-10-06T05:02:42.825Z,96.35
2022-10-06T05:03:42.802Z,96.35
2022-10-06T05:04:42.843Z,96.35
2022-10-06T05:05:42.780Z,96.41
2022-10-06T05:06:42.894Z,96.35
2022-10-06T05:07:42.741Z,96.35
2022-10-06T05:08:42.736Z,96.35
2022-10-06T05:09:42.800Z,96.25
2022-10-06T05:10:42.709Z,96.35
2022-10-06T05:11:42.725Z,96.45
2022-10-06T05:12:42.698Z,96.45
2022-10-06T05:13:42.678Z,96.45
2022-10-06T05:14:43.199Z,96.56
2022-10-06T05:15:42.658Z,96.56
2022-10-06T05:16:42.759Z,96.56
2022-10-06T05:17:42.647Z,96.60
2022-10-06T05:18:42.608Z,96.70
2022-10-06T05:19:43.016Z,96.70
2022-10-06T05:20:42.590Z,96.70
2022-10-06T05:21:42.566Z,96.70
2022-10-06T05:22:42.550Z,96.70
2022-10-06T05:23:42.537Z,96.81
2022-10-06T05:24:43.050Z,96.70
2022-10-06T05:25:42.525Z,96.81
2022-10-06T05:26:42.508Z,96.91
2022-10-06T05:27:42.496Z,96.91
2022-10-06T05:28:42.538Z,97.02
2022-10-06T05:29:42.484Z,97.02
2022-10-06T05:30:42.454Z,97.02
2022-10-06T05:31:42.480Z,97.02
2022-10-06T05:32:42.423Z,96.91
2022-10-06T05:33:42.414Z,96.91
2022-10-06T05:34:42.965Z,96.91
2022-10-06T05:35:42.385Z,96.91
2022-10-06T05:36:42.386Z,97.02
2022-10-06T05:37:42.365Z,97.02
2022-10-06T05:38:42.355Z,97.02
2022-10-06T05:39:42.943Z,97.12
2022-10-06T05:40:42.328Z,97.07
2022-10-06T05:41:42.321Z,97.07
2022-10-06T05:42:42.293Z,97.07
2022-10-06T05:43:42.283Z,97.07
2022-10-06T05:44:42.283Z,97.17
2022-10-06T05:45:42.841Z,97.07
2022-10-06T05:46:42.273Z,97.03
2022-10-06T05:47:42.253Z,97.03
2022-10-06T05:48:42.218Z,97.03
2022-10-06T05:49:42.201Z,97.03
2022-10-06T05:50:42.490Z,96.92
2022-10-06T05:51:42.178Z,96.92
2022-10-06T05:52:42.180Z,96.92
2022-10-06T05:53:42.180Z,96.92
2022-10-06T05:54:42.175Z,96.88
2022-10-06T05:55:42.444Z,96.88
2022-10-06T05:56:42.128Z,96.88
2022-10-06T05:57:42.124Z,96.78
2022-10-06T05:58:42.089Z,96.67
2022-10-06T05:59:42.088Z,96.63
2022-10-06T06:00:42.978Z,96.53
2022-10-06T06:01:42.111Z,96.53
2022-10-06T06:02:42.089Z,96.42
2022-10-06T06:03:42.018Z,96.32
2022-10-06T06:04:42.419Z,96.22
2022-10-06T06:05:41.998Z,96.22
2022-10-06T06:06:41.984Z,96.17
2022-10-06T06:07:41.970Z,96.07
2022-10-06T06:08:41.981Z,96.07
2022-10-06T06:09:42.333Z,96.07
2022-10-06T06:10:41.932Z,95.87
2022-10-06T06:11:41.926Z,95.87
2022-10-06T06:12:41.899Z,95.82
2022-10-06T06:13:41.898Z,95.72
2022-10-06T06:14:42.305Z,95.72
2022-10-06T06:15:41.864Z,95.51
2022-10-06T06:16:42.026Z,95.41
2022-10-06T06:17:41.846Z,95.31
2022-10-06T06:18:41.836Z,95.31
2022-10-06T06:19:42.188Z,95.21
2022-10-06T06:20:41.804Z,95.10
2022-10-06T06:21:41.799Z,95.10
2022-10-06T06:22:41.956Z,95.00
2022-10-06T06:23:41.774Z,95.06
2022-10-06T06:24:41.802Z,95.06
2022-10-06T06:25:41.756Z,95.06
2022-10-06T06:26:41.741Z,95.06
2022-10-06T06:27:41.734Z,94.96
2022-10-06T06:28:41.763Z,94.96
2022-10-06T06:29:41.714Z,94.75
2022-10-06T06:30:41.684Z,94.71
2022-10-06T06:31:41.682Z,94.60
2022-10-06T06:32:41.653Z,94.51
2022-10-06T06:33:41.642Z,94.60
2022-10-06T06:34:42.001Z,94.51
2022-10-06T06:35:41.614Z,94.26
2022-10-06T06:36:41.599Z,94.15
2022-10-06T06:37:41.590Z,94.06
2022-10-06T06:38:41.569Z,93.85
2022-10-06T06:39:41.851Z,93.85
2022-10-06T06:40:41.549Z,93.70
2022-10-06T06:41:41.531Z,93.80
2022-10-06T06:42:41.520Z,93.91
2022-10-06T06:43:41.511Z,93.80
2022-10-06T06:44:41.852Z,93.80
2022-10-06T06:45:41.523Z,93.80
2022-10-06T06:46:41.469Z,93.91
2022-10-06T06:47:41.448Z,93.86
2022-10-06T06:48:41.446Z,93.96
2022-10-06T06:49:41.858Z,93.66
2022-10-06T06:50:41.408Z,93.55
2022-10-06T06:51:41.397Z,93.55
2022-10-06T06:52:41.387Z,93.51
2022-10-06T06:53:41.384Z,93.41
2022-10-06T06:54:41.705Z,93.62
2022-10-06T06:55:41.343Z,93.41
2022-10-06T06:56:41.336Z,93.31
2022-10-06T06:57:41.317Z,93.21
2022-10-06T06:58:41.305Z,93.31
2022-10-06T06:59:41.325Z,93.31
2022-10-06T07:00:41.292Z,93.21
2022-10-06T07:01:41.408Z,93.41
2022-10-06T07:02:41.257Z,93.47
2022-10-06T07:03:57.636Z,93.16
2022-10-06T07:04:42.810Z,92.96
2022-10-06T07:05:41.214Z,92.86
2022-10-06T07:06:41.204Z,92.65
2022-10-06T07:07:41.194Z,92.45
2022-10-06T07:08:41.177Z,92.24
2022-10-06T07:09:41.634Z,92.50
2022-10-06T07:10:41.154Z,92.41
2022-10-06T07:11:41.135Z,92.20
2022-10-06T07:12:41.123Z,92.00
2022-10-06T07:13:41.114Z,92.00
2022-10-06T07:14:41.503Z,91.85
2022-10-06T07:15:41.123Z,91.85
2022-10-06T07:16:41.073Z,91.55
2022-10-06T07:17:41.065Z,91.40
2022-10-06T07:18:41.043Z,91.40
2022-10-06T07:19:41.574Z,91.09
2022-10-06T07:20:41.011Z,90.85
2022-10-06T07:21:41.005Z,90.95
2022-10-06T07:22:40.994Z,90.75
2022-10-06T07:23:40.993Z,90.55
2022-10-06T07:24:41.395Z,90.50
2022-10-06T07:25:40.992Z,90.20
2022-10-06T07:26:40.939Z,89.89
2022-10-06T07:27:40.941Z,89.89
2022-10-06T07:28:40.960Z,89.79
2022-10-06T07:29:40.920Z,89.69
2022-10-06T07:30:41.213Z,89.99
2022-10-06T07:31:40.927Z,90.09
2022-10-06T07:32:40.864Z,89.75
2022-10-06T07:33:40.846Z,89.54
2022-10-06T07:35:40.810Z,89.54
2022-10-06T07:36:40.801Z,89.64
2022-10-06T07:37:40.782Z,89.95
2022-10-06T07:38:40.799Z,89.30
2022-10-06T07:39:41.192Z,89.20
2022-10-06T07:40:46.154Z,89.20
2022-10-06T07:41:41.731Z,89.56
2022-10-06T07:42:40.719Z,89.15
2022-10-06T07:43:40.707Z,88.95
2022-10-06T07:44:41.275Z,88.71
2022-10-06T07:45:40.723Z,88.50
2022-10-06T07:46:40.726Z,88.40
2022-10-06T07:47:40.669Z,88.36
2022-10-06T07:48:40.659Z,87.85
2022-10-06T07:49:40.948Z,87.45
2022-10-06T07:50:40.657Z,87.14
2022-10-06T07:51:40.596Z,87.51
2022-10-06T07:52:40.593Z,87.51
2022-10-06T07:53:40.568Z,87.40
2022-10-06T07:54:40.867Z,87.30
2022-10-06T07:55:40.547Z,87.30
2022-10-06T07:56:40.556Z,87.06
2022-10-06T07:57:40.516Z,87.06
2022-10-06T07:58:40.530Z,86.65
2022-10-06T07:59:40.918Z,86.55
2022-10-06T08:00:40.488Z,86.76
2022-10-06T08:01:40.541Z,86.76
2022-10-06T08:02:40.529Z,86.51
2022-10-06T08:03:40.447Z,86.31
2022-10-06T08:04:40.796Z,86.31
2022-10-06T08:05:40.419Z,86.07
2022-10-06T08:06:40.405Z,85.66
2022-10-06T08:07:40.384Z,85.46
2022-10-06T08:08:40.374Z,85.56
2022-10-06T08:09:40.791Z,85.66
2022-10-06T08:10:40.353Z,85.42
2022-10-06T08:11:40.337Z,85.31
2022-10-06T08:12:40.349Z,85.42
2022-10-06T08:13:40.303Z,85.62
2022-10-06T08:14:40.645Z,85.21
2022-10-06T08:15:40.307Z,85.31
2022-10-06T08:16:40.277Z,85.01
2022-10-06T08:17:40.253Z,85.11
2022-10-06T08:18:46.830Z,85.01
2022-10-06T08:19:41.651Z,85.21
2022-10-06T08:20:40.229Z,85.11
2022-10-06T08:21:40.202Z,84.91
2022-10-06T08:22:40.197Z,84.91
2022-10-06T08:23:40.183Z,84.97
2022-10-06T08:25:04.238Z,85.11
2022-10-06T08:25:41.524Z,84.41
2022-10-06T08:26:40.141Z,84.70
2022-10-06T08:27:40.121Z,84.67
2022-10-06T08:28:40.181Z,84.70
2022-10-06T08:29:40.092Z,84.97
2022-10-06T08:30:40.525Z,84.97
2022-10-06T08:31:40.106Z,85.17
2022-10-06T08:32:40.061Z,84.73
2022-10-06T08:33:40.042Z,83.72
2022-10-06T08:34:40.478Z,83.82
2022-10-06T08:35:40.023Z,83.51
2022-10-06T08:36:45.015Z,83.41
2022-10-06T08:37:40.989Z,83.61
2022-10-06T08:38:40.000Z,83.31
2022-10-06T08:39:40.341Z,82.97
2022-10-06T08:40:39.959Z,83.58
2022-10-06T08:41:39.942Z,82.97
2022-10-06T08:42:39.929Z,82.97
2022-10-06T08:43:39.908Z,83.07
2022-10-06T08:44:40.341Z,82.97
2022-10-06T08:45:39.969Z,83.01
2022-10-06T08:46:39.886Z,82.60
2022-10-06T08:47:39.879Z,82.70
2022-10-06T08:48:39.850Z,83.21
2022-10-06T08:49:40.149Z,82.90
2022-10-06T08:50:39.830Z,83.07
2022-10-06T08:51:39.838Z,82.56
2022-10-06T08:52:39.817Z,82.76
2022-10-06T08:53:39.787Z,83.03
2022-10-06T08:54:39.808Z,82.83
2022-10-06T08:55:39.767Z,82.02
2022-10-06T08:56:39.769Z,82.02
2022-10-06T08:57:39.726Z,82.42
2022-10-06T08:58:39.721Z,82.62
2022-10-06T08:59:40.148Z,82.39
2022-10-06T09:00:39.688Z,82.08
2022-10-06T09:01:39.740Z,81.57
2022-10-06T09:02:39.714Z,81.17
2022-10-06T09:03:39.688Z,81.07
2022-10-06T09:04:40.068Z,81.57
2022-10-06T09:05:39.637Z,81.48
2022-10-06T09:06:39.606Z,81.78
2022-10-06T09:07:39.657Z,81.48
2022-10-06T09:08:39.587Z,81.03
2022-10-06T09:09:39.857Z,81.44
2022-10-06T09:10:39.557Z,80.79
2022-10-06T09:11:39.545Z,80.49
2022-10-06T09:12:39.537Z,80.29
2022-10-06T09:13:39.515Z,80.15
2022-10-06T09:14:39.975Z,80.05
2022-10-06T09:15:39.553Z,79.74
2022-10-06T09:16:39.538Z,79.85
2022-10-06T09:17:39.495Z,79.41
2022-10-06T09:19:03.515Z,78.90
2022-10-06T09:19:40.774Z,77.99
2022-10-06T09:20:39.436Z,78.16
2022-10-06T09:21:39.417Z,78.56
2022-10-06T09:22:39.434Z,78.36
2022-10-06T09:23:39.399Z,78.83
2022-10-06T09:24:43.599Z,78.52
2022-10-06T09:25:40.834Z,78.83
2022-10-06T09:26:39.352Z,79.13
2022-10-06T09:27:39.333Z,78.42
2022-10-06T09:28:39.401Z,78.52
2022-10-06T09:29:39.312Z,77.92
2022-10-06T09:30:39.672Z,78.59
2022-10-06T09:31:39.366Z,78.49
2022-10-06T09:32:39.283Z,76.77
2022-10-06T09:33:39.263Z,77.28
2022-10-06T09:34:39.283Z,77.64
2022-10-06T09:35:39.651Z,77.44
2022-10-06T09:36:39.213Z,76.54
2022-10-06T09:37:39.204Z,76.54
2022-10-06T09:38:39.192Z,76.60
2022-10-06T09:39:39.180Z,77.00
2022-10-06T09:40:39.515Z,75.86
2022-10-06T09:41:39.143Z,75.86
2022-10-06T09:42:39.133Z,76.06
2022-10-06T09:43:39.123Z,75.86
2022-10-06T09:44:39.113Z,75.35
2022-10-06T09:45:39.546Z,74.85
2022-10-06T09:46:39.092Z,75.56
2022-10-06T09:47:39.079Z,75.62
2022-10-06T09:48:39.064Z,75.02
2022-10-06T09:49:39.057Z,74.62
2022-10-06T09:50:39.059Z,74.92
2022-10-06T09:51:39.025Z,75.22
2022-10-06T09:52:39.004Z,75.12
2022-10-06T09:53:38.999Z,74.62
2022-10-06T09:54:38.982Z,74.52
2022-10-06T09:55:39.311Z,75.42
2022-10-06T09:56:38.993Z,75.32
2022-10-06T09:57:38.942Z,75.92
2022-10-06T09:58:38.921Z,74.41
2022-10-06T09:59:40.320Z,74.62
2022-10-06T10:00:39.478Z,74.82
2022-10-06T10:01:38.912Z,75.12
2022-10-06T10:02:38.938Z,75.02
2022-10-06T10:03:38.859Z,74.52
2022-10-06T10:04:38.841Z,74.82
2022-10-06T10:05:39.139Z,74.01
2022-10-06T10:06:38.820Z,74.01
2022-10-06T10:07:38.801Z,73.78
2022-10-06T10:08:38.807Z,71.67
2022-10-06T10:09:38.782Z,72.07
2022-10-06T10:10:39.233Z,72.27
2022-10-06T10:11:38.760Z,71.90
2022-10-06T10:12:38.741Z,72.61
2022-10-06T10:13:38.731Z,72.77
2022-10-06T10:14:38.720Z,72.81
2022-10-06T10:15:39.001Z,73.38
2022-10-06T10:16:38.772Z,73.21
2022-10-06T10:17:38.672Z,71.87
2022-10-06T10:18:38.670Z,71.97
2022-10-06T10:19:38.650Z,72.67
2022-10-06T10:20:38.992Z,72.67
2022-10-06T10:21:38.633Z,72.77
2022-10-06T10:22:38.612Z,71.36
2022-10-06T10:23:38.600Z,72.07
2022-10-06T10:24:38.591Z,72.27
2022-10-06T10:25:38.889Z,72.41
2022-10-06T10:26:38.565Z,72.71
2022-10-06T10:27:38.572Z,73.18
2022-10-06T10:28:38.563Z,71.47
2022-10-06T10:29:38.520Z,71.00
2022-10-06T10:30:38.946Z,71.09
2022-10-06T10:31:38.531Z,71.40
2022-10-06T10:32:38.479Z,71.80
2022-10-06T10:33:38.480Z,70.89
2022-10-06T10:34:38.449Z,71.63
2022-10-06T10:35:38.484Z,71.94
2022-10-06T10:36:38.768Z,72.84
2022-10-06T10:37:38.420Z,72.20
2022-10-06T10:38:38.407Z,70.76
2022-10-06T10:39:38.398Z,70.96
2022-10-06T10:40:38.750Z,71.16
2022-10-06T10:41:38.376Z,70.06
2022-10-06T10:42:38.349Z,69.15
2022-10-06T10:43:38.340Z,68.65
2022-10-06T10:44:38.358Z,70.16
2022-10-06T10:45:38.323Z,71.06
2022-10-06T10:46:38.795Z,69.15
2022-10-06T10:47:38.285Z,68.25
2022-10-06T10:48:38.276Z,69.18
2022-10-06T10:49:38.273Z,68.11
2022-10-06T10:50:38.277Z,68.31
2022-10-06T10:51:38.610Z,67.94
2022-10-06T10:52:38.228Z,68.08
2022-10-06T10:53:40.332Z,69.18
2022-10-06T10:54:38.198Z,69.42
2022-10-06T10:55:38.188Z,69.62
2022-10-06T10:56:38.635Z,69.82
2022-10-06T10:57:38.156Z,69.69
2022-10-06T10:58:38.147Z,68.65
2022-10-06T10:59:38.137Z,68.55
2022-10-06T11:00:38.209Z,68.65
2022-10-06T11:01:38.595Z,69.56
2022-10-06T11:02:38.086Z,69.22
2022-10-06T11:03:38.086Z,68.71
2022-10-06T11:04:38.067Z,67.98
2022-10-06T11:05:38.045Z,67.31
2022-10-06T11:06:38.437Z,68.08
2022-10-06T11:07:38.017Z,67.58
2022-10-06T11:08:38.021Z,67.78
2022-10-06T11:09:38.018Z,66.87
2022-10-06T11:10:38.417Z,67.47
2022-10-06T11:11:37.970Z,67.07
2022-10-06T11:12:37.970Z,66.57
2022-10-06T11:13:37.945Z,67.18
2022-10-06T11:14:37.935Z,66.94
2022-10-06T11:15:37.924Z,66.24
2022-10-06T11:16:38.027Z,66.31
2022-10-06T11:17:37.897Z,65.88
2022-10-06T11:18:37.893Z,64.34
2022-10-06T11:19:37.867Z,63.40
2022-10-06T11:20:37.864Z,63.60
2022-10-06T11:21:38.184Z,64.18
2022-10-06T11:22:37.822Z,64.07
2022-10-06T11:23:37.815Z,63.87
2022-10-06T11:24:37.809Z,64.18
2022-10-06T11:25:37.792Z,63.60
2022-10-06T11:26:38.194Z,64.48
2022-10-06T11:27:37.758Z,65.38
2022-10-06T11:28:37.807Z,64.31
2022-10-06T11:29:37.766Z,65.41
2022-10-06T11:30:37.714Z,66.05
2022-10-06T11:31:38.118Z,65.44
2022-10-06T11:32:37.694Z,66.17
2022-10-06T11:33:37.684Z,67.24
2022-10-06T11:34:37.664Z,67.74
2022-10-06T11:35:37.657Z,67.98
2022-10-06T11:36:37.963Z,67.98
2022-10-06T11:37:37.664Z,68.48
2022-10-06T11:38:37.622Z,68.08
2022-10-06T11:39:37.607Z,68.48
2022-10-06T11:40:37.583Z,68.71
2022-10-06T11:41:37.874Z,68.71
2022-10-06T11:42:37.556Z,69.25
2022-10-06T11:43:37.553Z,70.16
2022-10-06T11:44:37.540Z,70.26
2022-10-06T11:45:37.598Z,70.26
2022-10-06T11:46:41.302Z,69.96
2022-10-06T11:47:38.503Z,70.06
2022-10-06T11:48:37.493Z,70.66
2022-10-06T11:49:37.472Z,70.96
2022-10-06T11:50:37.457Z,70.46
2022-10-06T11:51:37.750Z,70.03
2022-10-06T11:52:37.444Z,69.09
2022-10-06T11:53:37.421Z,69.49
2022-10-06T11:54:37.417Z,69.56
2022-10-06T11:55:37.389Z,69.02
2022-10-06T11:56:37.819Z,67.98
2022-10-06T11:57:37.369Z,66.88
2022-10-06T11:58:42.493Z,67.38
2022-10-06T11:59:38.352Z,68.02
2022-10-06T12:00:37.329Z,67.91
2022-10-06T12:01:37.724Z,67.82
2022-10-06T12:02:37.423Z,66.51
2022-10-06T12:03:37.283Z,66.67
2022-10-06T12:04:37.272Z,67.11
2022-10-06T12:05:55.869Z,67.71
2022-10-06T12:06:38.680Z,67.44
2022-10-06T12:07:37.242Z,67.47
2022-10-06T12:08:37.224Z,68.08
2022-10-06T12:09:37.211Z,68.25
2022-10-06T12:10:37.203Z,67.31
2022-10-06T12:11:37.189Z,66.20
2022-10-06T12:12:37.589Z,66.41
2022-10-06T12:14:26.605Z,66.67
2022-10-06T12:16:00.095Z,66.38
2022-10-06T12:17:11.713Z,66.05
2022-10-06T12:17:38.131Z,65.54
2022-10-06T12:18:37.102Z,65.31
2022-10-06T12:19:37.081Z,65.68
2022-10-06T12:20:37.079Z,65.08
2022-10-06T12:21:37.112Z,64.28
2022-10-06T12:22:37.469Z,63.17
2022-10-06T12:23:37.032Z,63.04
2022-10-06T12:24:37.028Z,63.14
2022-10-06T12:25:37.010Z,63.64
2022-10-06T12:26:36.999Z,63.34
2022-10-06T12:27:37.409Z,63.71
2022-10-06T12:28:37.085Z,63.42
2022-10-06T12:29:36.979Z,63.31
2022-10-06T12:30:37.003Z,62.61
2022-10-06T12:31:36.963Z,62.71
2022-10-06T12:32:37.369Z,62.51
2022-10-06T12:33:36.904Z,62.41
2022-10-06T12:34:36.881Z,62.68
2022-10-06T12:35:36.878Z,62.31
2022-10-06T12:36:36.849Z,62.41
2022-10-06T12:37:37.219Z,62.64
2022-10-06T12:38:36.839Z,63.04
2022-10-06T12:39:36.840Z,64.11
2022-10-06T12:40:36.809Z,64.31
2022-10-06T12:41:36.815Z,64.51
2022-10-06T12:42:37.235Z,64.37
2022-10-06T12:43:36.769Z,63.67
2022-10-06T12:44:36.750Z,62.87
2022-10-06T12:45:36.743Z,63.17
2022-10-06T12:46:37.124Z,63.28
2022-10-06T12:47:43.727Z,62.87
2022-10-06T12:48:36.760Z,63.17
2022-10-06T12:49:36.681Z,63.78
2022-10-06T12:50:36.699Z,63.24
2022-10-06T12:51:37.072Z,62.84
2022-10-06T12:52:36.653Z,62.61
2022-10-06T12:53:36.631Z,61.21
2022-10-06T12:54:36.655Z,61.71